Time;durP1;ratioP1;P1;durP2;ratioP2;P2;SDS_P1;SDS_P2;PMS_P1;PMS_P2;Temp;Humidity;BMP_temperature;BMP_pressure;BME280_temperature;BME280_humidity;BME280_pressure;Samples;Min_cycle;Max_cycle;Signal;HPM_P1;HPM_P2
2023/08/10 00:01:48;;;;;;;80.88;52.33;;;17.80;83.70;;;;;;4915114;28;96948;-75
2023/08/10 00:04:14;;;;;;;82.38;52.90;;;17.70;83.70;;;;;;4938117;28;95178;-76
2023/08/10 00:06:39;;;;;;;82.82;52.85;;;17.70;83.90;;;;;;4943138;28;94722;-77
2023/08/10 00:09:07;;;;;;;81.95;52.67;;;17.70;84.60;;;;;;4913662;28;95112;-73
2023/08/10 00:11:33;;;;;;;81.90;52.65;;;17.70;83.70;;;;;;4922163;28;96588;-77
2023/08/10 00:13:58;;;;;;;81.53;52.78;;;17.70;83.70;;;;;;4933788;28;93989;-78
2023/08/10 00:16:24;;;;;;;81.35;52.55;;;17.70;83.70;;;;;;4934059;28;98963;-76
2023/08/10 00:18:51;;;;;;;81.55;52.65;;;17.60;83.80;;;;;;4932065;28;98487;-72
2023/08/10 00:21:16;;;;;;;81.35;52.63;;;17.60;84.00;;;;;;4936273;28;97488;-76
2023/08/10 00:23:42;;;;;;;81.47;52.45;;;17.60;83.70;;;;;;4939470;28;96303;-78
2023/08/10 00:26:08;;;;;;;81.43;52.40;;;17.60;83.80;;;;;;4925902;28;94935;-77
2023/08/10 00:28:34;;;;;;;80.18;52.08;;;17.60;84.10;;;;;;4920335;28;94740;-75
2023/08/10 00:30:59;;;;;;;81.80;52.42;;;17.50;84.10;;;;;;4939638;28;97480;-77
2023/08/10 00:33:25;;;;;;;81.60;52.38;;;17.50;84.10;;;;;;4936400;28;100405;-74
2023/08/10 00:35:51;;;;;;;81.68;52.65;;;17.50;84.00;;;;;;4936758;28;96388;-75
2023/08/10 00:38:16;;;;;;;81.57;52.67;;;17.50;84.20;;;;;;4943253;28;95128;-78
2023/08/10 00:40:42;;;;;;;80.85;52.28;;;17.50;84.90;;;;;;4939032;28;95431;-74
2023/08/10 00:43:07;;;;;;;82.10;52.42;;;17.40;84.30;;;;;;4939921;28;99571;-77
2023/08/10 00:45:33;;;;;;;80.70;52.22;;;17.40;83.90;;;;;;4946305;28;96778;-75
2023/08/10 00:47:59;;;;;;;81.22;52.55;;;17.40;84.00;;;;;;4942239;28;98923;-76
2023/08/10 00:50:25;;;;;;;82.15;52.72;;;17.40;84.10;;;;;;4936816;28;94728;-76
2023/08/10 00:52:51;;;;;;;81.50;52.20;;;17.40;83.90;;;;;;4947883;28;95235;-78
2023/08/10 00:55:17;;;;;;;82.18;52.55;;;17.40;84.10;;;;;;4930143;28;96555;-77
2023/08/10 00:57:43;;;;;;;80.63;52.22;;;17.30;84.10;;;;;;4941761;28;95633;-73
2023/08/10 01:00:10;;;;;;;81.70;52.35;;;17.30;84.20;;;;;;4938868;28;96482;-77
2023/08/10 01:02:42;;;;;;;82.85;52.58;;;17.30;84.30;;;;;;4939922;28;94337;-74
2023/08/10 01:05:12;;;;;;;80.38;52.15;;;17.30;84.20;;;;;;4933523;28;94562;-77
2023/08/10 01:08:05;;;;;;;81.43;52.55;;;17.30;85.20;;;;;;4916324;28;97557;-72
2023/08/10 01:10:53;;;;;;;81.05;52.22;;;17.20;84.60;;;;;;4932914;28;97842;-74
2023/08/10 01:14:17;;;;;;;82.35;52.42;;;17.20;84.40;;;;;;4923195;28;99125;-73
2023/08/10 01:16:44;;;;;;;80.72;52.40;;;17.20;84.60;;;;;;4908408;28;96324;-77
2023/08/10 01:19:23;;;;;;;80.97;52.55;;;17.20;84.50;;;;;;4945216;28;94977;-76
2023/08/10 01:22:12;;;;;;;81.25;52.20;;;17.20;84.30;;;;;;4938128;28;95825;-77
2023/08/10 01:24:42;;;;;;;82.40;52.28;;;17.10;84.30;;;;;;4931134;28;97342;-77
2023/08/10 01:27:12;;;;;;;80.45;51.97;;;17.10;84.50;;;;;;4937636;28;96566;-76
2023/08/10 01:29:38;;;;;;;81.00;52.50;;;17.10;84.40;;;;;;4930553;28;94490;-74
2023/08/10 01:32:04;;;;;;;80.05;52.10;;;17.10;84.50;;;;;;4932562;28;95799;-77
2023/08/10 01:34:30;;;;;;;81.30;52.28;;;17.10;84.30;;;;;;4913178;28;97663;-79
2023/08/10 01:36:55;;;;;;;80.93;52.58;;;17.10;84.20;;;;;;4944416;28;96021;-79
2023/08/10 01:39:21;;;;;;;80.32;52.28;;;17.00;84.60;;;;;;4944598;28;95103;-76
2023/08/10 01:41:47;;;;;;;81.35;52.20;;;17.00;84.40;;;;;;4944404;28;95158;-77
2023/08/10 01:44:12;;;;;;;81.18;52.25;;;17.00;84.50;;;;;;4935766;28;95046;-76
2023/08/10 01:46:40;;;;;;;80.35;52.15;;;17.00;84.20;;;;;;4930499;28;95022;-74
2023/08/10 01:49:10;;;;;;;80.53;52.28;;;17.00;84.30;;;;;;4934297;28;98169;-77
2023/08/10 01:51:39;;;;;;;80.80;52.03;;;17.00;84.40;;;;;;4943545;28;97536;-76
2023/08/10 01:54:08;;;;;;;80.63;52.13;;;16.90;84.60;;;;;;4928638;28;96790;-76
2023/08/10 01:56:33;;;;;;;80.00;52.22;;;16.90;84.50;;;;;;4897397;28;95810;-78
2023/08/10 01:58:59;;;;;;;79.97;52.15;;;16.90;84.50;;;;;;4927945;28;97042;-79
2023/08/10 02:01:25;;;;;;;80.78;52.33;;;16.90;84.50;;;;;;4913993;28;98374;-77
2023/08/10 02:03:51;;;;;;;79.95;52.10;;;16.90;84.50;;;;;;4941712;28;94989;-77
2023/08/10 02:06:17;;;;;;;80.65;52.15;;;16.90;84.60;;;;;;4937031;28;98964;-77
2023/08/10 02:08:43;;;;;;;80.40;52.22;;;16.90;84.60;;;;;;4933825;28;95556;-73
2023/08/10 02:11:08;;;;;;;80.53;52.33;;;16.80;84.60;;;;;;4922337;28;95597;-78
2023/08/10 02:13:34;;;;;;;80.32;52.25;;;16.80;84.70;;;;;;4934372;28;94556;-77
2023/08/10 02:16:00;;;;;;;82.35;52.45;;;16.80;84.80;;;;;;4915285;28;95509;-76
2023/08/10 02:18:25;;;;;;;80.45;52.33;;;16.80;84.60;;;;;;4935746;28;94539;-77
2023/08/10 02:20:51;;;;;;;81.03;52.20;;;16.70;84.70;;;;;;4906847;28;96260;-78
2023/08/10 02:23:16;;;;;;;80.20;52.35;;;16.70;84.70;;;;;;4946917;28;98704;-78
2023/08/10 02:25:42;;;;;;;80.38;52.42;;;16.70;84.60;;;;;;4934129;28;97849;-73
2023/08/10 02:28:08;;;;;;;80.35;52.08;;;16.70;84.70;;;;;;4940839;28;95191;-78
2023/08/10 02:30:33;;;;;;;79.93;51.90;;;16.70;84.80;;;;;;4926444;28;99404;-75
2023/08/10 02:32:59;;;;;;;80.25;52.15;;;16.70;85.10;;;;;;4916446;28;97074;-78
2023/08/10 02:35:25;;;;;;;81.15;52.15;;;16.70;85.10;;;;;;4924227;28;94916;-75
2023/08/10 02:37:50;;;;;;;81.38;52.20;;;16.70;85.10;;;;;;4936759;28;94740;-77
2023/08/10 02:40:16;;;;;;;80.55;52.25;;;16.70;85.30;;;;;;4914030;28;97035;-78
2023/08/10 02:42:42;;;;;;;80.03;52.13;;;16.60;85.00;;;;;;4916419;28;98963;-74
2023/08/10 02:45:08;;;;;;;80.35;52.13;;;16.70;86.10;;;;;;4928498;28;95549;-74
2023/08/10 02:47:34;;;;;;;82.30;52.22;;;16.60;85.20;;;;;;4936735;28;95336;-78
2023/08/10 02:50:01;;;;;;;79.63;52.03;;;16.60;84.90;;;;;;4931619;28;96891;-78
2023/08/10 02:52:27;;;;;;;80.63;52.22;;;16.60;85.10;;;;;;4934053;28;95070;-74
2023/08/10 02:54:52;;;;;;;79.78;52.10;;;16.60;85.10;;;;;;4941384;28;94992;-76
2023/08/10 02:57:18;;;;;;;82.40;52.00;;;16.50;85.00;;;;;;4933720;28;97801;-77
2023/08/10 02:59:44;;;;;;;79.80;52.20;;;16.60;84.90;;;;;;4928115;28;95077;-78
2023/08/10 03:02:09;;;;;;;80.25;52.00;;;16.60;84.90;;;;;;4938309;28;95305;-77
2023/08/10 03:04:35;;;;;;;82.88;51.75;;;16.50;84.90;;;;;;4939606;28;98568;-74
2023/08/10 03:07:01;;;;;;;80.22;52.05;;;16.50;85.00;;;;;;4948227;28;96998;-77
2023/08/10 03:09:27;;;;;;;80.63;51.83;;;16.50;84.90;;;;;;4937196;28;95156;-73
2023/08/10 03:11:53;;;;;;;79.53;51.88;;;16.50;84.90;;;;;;4937550;28;94714;-78
2023/08/10 03:14:18;;;;;;;79.63;52.03;;;16.50;84.70;;;;;;4933045;28;95823;-74
2023/08/10 03:16:44;;;;;;;79.13;51.63;;;16.40;84.70;;;;;;4932369;28;96365;-78
2023/08/10 03:19:10;;;;;;;80.68;52.33;;;16.40;84.80;;;;;;4943639;28;95262;-79
2023/08/10 03:21:35;;;;;;;80.05;52.08;;;16.50;84.70;;;;;;4936104;28;98982;-76
2023/08/10 03:24:02;;;;;;;80.05;51.90;;;16.40;84.70;;;;;;4918830;28;95246;-74
2023/08/10 03:26:27;;;;;;;80.40;52.00;;;16.40;84.70;;;;;;4943283;28;95217;-75
2023/08/10 03:28:53;;;;;;;80.55;51.92;;;16.40;84.90;;;;;;4933203;28;97698;-76
2023/08/10 03:31:19;;;;;;;79.93;52.05;;;16.40;84.80;;;;;;4928723;28;97536;-76
2023/08/10 03:33:44;;;;;;;79.25;51.85;;;16.30;84.80;;;;;;4925809;28;95625;-76
2023/08/10 03:36:10;;;;;;;80.22;51.85;;;16.30;84.90;;;;;;4939935;28;95677;-73
2023/08/10 03:38:36;;;;;;;79.68;52.00;;;16.40;84.80;;;;;;4925693;28;98986;-73
2023/08/10 03:41:01;;;;;;;81.30;52.03;;;16.30;84.80;;;;;;4921904;28;95451;-77
2023/08/10 03:43:27;;;;;;;79.50;52.05;;;16.30;84.80;;;;;;4947063;28;95910;-76
2023/08/10 03:45:53;;;;;;;79.50;51.72;;;16.30;84.80;;;;;;4938904;28;99764;-76
2023/08/10 03:48:18;;;;;;;79.80;52.20;;;16.30;85.10;;;;;;4937497;28;96362;-78
2023/08/10 03:50:44;;;;;;;79.75;51.95;;;16.30;85.00;;;;;;4928203;28;95476;-77
2023/08/10 03:53:10;;;;;;;79.70;51.90;;;16.30;85.30;;;;;;4935095;28;98756;-77
2023/08/10 03:55:36;;;;;;;79.80;52.03;;;16.20;85.00;;;;;;4946642;28;94402;-74
2023/08/10 03:58:01;;;;;;;79.32;51.95;;;16.20;85.30;;;;;;4932461;28;96262;-77
2023/08/10 04:00:27;;;;;;;79.63;51.95;;;16.20;85.00;;;;;;4936676;28;95354;-76
2023/08/10 04:02:53;;;;;;;80.65;51.95;;;16.20;85.10;;;;;;4915113;28;96420;-75
2023/08/10 04:05:19;;;;;;;79.63;51.97;;;16.20;85.10;;;;;;4930833;28;94991;-73
2023/08/10 04:07:45;;;;;;;79.72;51.83;;;16.20;85.00;;;;;;4915791;28;95419;-76
2023/08/10 04:10:11;;;;;;;79.15;51.97;;;16.20;85.10;;;;;;4930532;28;97474;-77
2023/08/10 04:12:38;;;;;;;79.40;51.75;;;16.10;85.00;;;;;;4917863;28;99815;-75
2023/08/10 04:15:06;;;;;;;79.40;52.00;;;16.10;84.90;;;;;;4926506;28;96384;-74
2023/08/10 04:17:32;;;;;;;80.57;51.95;;;16.10;84.80;;;;;;4926789;28;97428;-75
2023/08/10 04:19:58;;;;;;;82.38;51.85;;;16.10;85.60;;;;;;4923621;28;95586;-76
2023/08/10 04:22:24;;;;;;;80.10;52.10;;;16.10;85.00;;;;;;4939904;28;96465;-78
2023/08/10 04:24:51;;;;;;;79.03;51.63;;;16.10;85.00;;;;;;4936298;28;98105;-74
2023/08/10 04:27:17;;;;;;;80.47;51.97;;;16.10;85.10;;;;;;4937446;28;96410;-77
2023/08/10 04:29:46;;;;;;;79.07;52.05;;;16.10;85.00;;;;;;4927383;28;95210;-75
2023/08/10 04:32:12;;;;;;;78.85;51.70;;;16.10;85.00;;;;;;4922589;28;95359;-75
2023/08/10 04:34:39;;;;;;;79.68;52.08;;;16.10;85.10;;;;;;4910822;28;95942;-78
2023/08/10 04:37:04;;;;;;;79.50;51.45;;;16.10;85.40;;;;;;4926577;28;98943;-76
2023/08/10 04:39:30;;;;;;;79.13;51.92;;;16.00;85.40;;;;;;4931631;28;96067;-74
2023/08/10 04:41:56;;;;;;;79.53;51.95;;;16.00;84.90;;;;;;4918015;28;98339;-77
2023/08/10 04:44:22;;;;;;;81.85;52.22;;;16.00;84.80;;;;;;4933087;28;96537;-72
2023/08/10 04:46:47;;;;;;;80.32;52.25;;;16.00;84.60;;;;;;4925112;28;94738;-74
2023/08/10 04:49:13;;;;;;;79.88;51.85;;;16.00;84.70;;;;;;4939585;28;98549;-74
2023/08/10 04:51:38;;;;;;;79.78;51.95;;;16.00;85.00;;;;;;4931214;28;95814;-76
2023/08/10 04:54:04;;;;;;;81.28;52.13;;;16.00;85.00;;;;;;4922205;28;95493;-74
2023/08/10 04:56:30;;;;;;;79.80;52.25;;;16.00;85.00;;;;;;4928231;28;97387;-78
2023/08/10 04:58:56;;;;;;;80.85;52.00;;;16.00;85.00;;;;;;4917954;28;97001;-74
2023/08/10 05:01:23;;;;;;;81.00;52.15;;;16.00;85.00;;;;;;4939084;28;98985;-77
2023/08/10 05:03:48;;;;;;;79.82;51.88;;;16.00;85.10;;;;;;4928670;28;96195;-75
2023/08/10 05:06:14;;;;;;;79.90;52.22;;;16.00;84.70;;;;;;4915988;28;95981;-78
2023/08/10 05:08:41;;;;;;;80.65;52.33;;;16.00;84.70;;;;;;4939909;28;94435;-76
2023/08/10 05:11:06;;;;;;;80.07;52.03;;;16.00;84.60;;;;;;4932684;28;95969;-73
2023/08/10 05:13:33;;;;;;;79.97;51.70;;;16.00;84.70;;;;;;4911431;28;95471;-73
2023/08/10 05:15:59;;;;;;;79.82;52.15;;;16.00;84.60;;;;;;4925541;28;99701;-76
2023/08/10 05:18:27;;;;;;;79.25;52.08;;;16.00;84.60;;;;;;4935270;28;96472;-74
2023/08/10 05:20:52;;;;;;;79.75;52.00;;;16.00;84.80;;;;;;4929370;28;96292;-77
2023/08/10 05:23:18;;;;;;;79.20;52.22;;;16.00;85.00;;;;;;4945453;28;99075;-76
2023/08/10 05:25:44;;;;;;;80.47;52.13;;;16.00;84.90;;;;;;4926665;28;97318;-76
2023/08/10 05:28:09;;;;;;;80.53;52.05;;;16.00;85.20;;;;;;4923349;28;95828;-73
2023/08/10 05:30:35;;;;;;;80.40;52.15;;;16.00;84.90;;;;;;4933527;28;94763;-76
2023/08/10 05:33:01;;;;;;;80.40;52.03;;;16.00;85.10;;;;;;4933326;28;96269;-78
2023/08/10 05:35:27;;;;;;;79.75;52.20;;;16.00;84.80;;;;;;4937739;28;96334;-73
2023/08/10 05:37:53;;;;;;;80.55;52.33;;;16.00;84.80;;;;;;4928793;28;96243;-77
2023/08/10 05:40:18;;;;;;;80.30;52.03;;;16.10;84.80;;;;;;4926330;28;96365;-76
2023/08/10 05:42:45;;;;;;;80.63;52.22;;;16.00;84.70;;;;;;4924652;28;99194;-75
2023/08/10 05:45:20;;;;;;;80.35;52.38;;;16.00;85.20;;;;;;4930786;28;97669;-75
2023/08/10 05:47:47;;;;;;;79.30;52.00;;;16.10;85.00;;;;;;4931894;28;98050;-78
2023/08/10 05:50:14;;;;;;;81.40;52.47;;;16.10;85.10;;;;;;4928319;28;96688;-76
2023/08/10 05:52:39;;;;;;;81.97;52.58;;;16.20;84.90;;;;;;4928615;28;97416;-72
2023/08/10 05:55:05;;;;;;;80.07;51.92;;;16.20;84.80;;;;;;4919649;28;97380;-74
2023/08/10 05:57:31;;;;;;;80.70;52.40;;;16.20;85.30;;;;;;4933356;28;97741;-77
2023/08/10 05:59:57;;;;;;;80.97;52.65;;;16.20;84.40;;;;;;4926890;28;95280;-73
2023/08/10 06:02:22;;;;;;;80.55;52.50;;;16.20;84.60;;;;;;4915373;28;99934;-71
2023/08/10 06:04:49;;;;;;;80.65;52.33;;;16.30;85.60;;;;;;4906724;28;99802;-77
2023/08/10 06:07:15;;;;;;;82.05;52.63;;;16.30;84.20;;;;;;4899821;28;97545;-74
2023/08/10 06:09:41;;;;;;;80.72;52.35;;;16.30;83.90;;;;;;4943476;28;95143;-72
2023/08/10 06:12:07;;;;;;;80.35;52.13;;;16.40;84.80;;;;;;4939577;28;99562;-74
2023/08/10 06:14:33;;;;;;;86.35;53.35;;;16.40;85.20;;;;;;4891675;28;99726;-72
2023/08/10 06:16:59;;;;;;;86.10;53.40;;;16.40;83.70;;;;;;4893114;28;95047;-73
2023/08/10 06:19:24;;;;;;;86.50;53.72;;;16.50;81.70;;;;;;4891822;28;95170;-72
2023/08/10 06:21:53;;;;;;;85.30;53.60;;;16.50;82.30;;;;;;4878426;28;94804;-70
2023/08/10 06:24:19;;;;;;;86.70;54.08;;;16.40;83.20;;;;;;4884361;28;96809;-71
2023/08/10 06:26:44;;;;;;;86.32;53.80;;;16.40;83.30;;;;;;4865270;28;95934;-72
2023/08/10 06:29:10;;;;;;;88.88;53.72;;;16.30;83.80;;;;;;4884568;28;97048;-71
2023/08/10 06:31:35;;;;;;;88.93;53.33;;;16.30;84.30;;;;;;4878651;28;95583;-71
2023/08/10 06:34:05;;;;;;;89.32;53.67;;;16.40;82.50;;;;;;4885444;28;95396;-72
2023/08/10 06:36:30;;;;;;;83.22;52.65;;;16.50;85.00;;;;;;4878337;28;95981;-74
2023/08/10 06:38:57;;;;;;;89.88;53.65;;;16.60;83.70;;;;;;4912234;28;96261;-72
2023/08/10 06:41:22;;;;;;;98.35;53.53;;;16.60;81.90;;;;;;4888705;28;96034;-76
2023/08/10 06:43:49;;;;;;;90.45;53.08;;;16.70;82.90;;;;;;4875130;28;96739;-74
2023/08/10 06:46:14;;;;;;;87.40;53.03;;;16.70;82.40;;;;;;4897210;28;95888;-73
2023/08/10 06:48:40;;;;;;;91.85;53.65;;;16.70;83.20;;;;;;4921652;28;99237;-73
2023/08/10 06:51:05;;;;;;;88.13;52.88;;;16.80;83.20;;;;;;4914453;28;96537;-73
2023/08/10 06:53:33;;;;;;;90.20;52.70;;;16.80;82.50;;;;;;4916669;28;98146;-70
2023/08/10 06:55:59;;;;;;;90.28;52.92;;;16.90;82.10;;;;;;4932441;28;96224;-72
2023/08/10 06:58:25;;;;;;;90.75;53.03;;;17.00;81.40;;;;;;4905204;28;95907;-72
2023/08/10 07:00:51;;;;;;;86.55;52.58;;;17.20;82.20;;;;;;4935498;28;95744;-70
2023/08/10 07:03:16;;;;;;;88.53;52.92;;;17.20;80.70;;;;;;4910010;28;95604;-73
2023/08/10 07:05:43;;;;;;;89.93;53.05;;;17.30;79.40;;;;;;4921912;28;98764;-71
2023/08/10 07:08:09;;;;;;;88.97;53.50;;;17.50;84.10;;;;;;4925402;28;98149;-71
2023/08/10 07:10:36;;;;;;;86.25;53.05;;;17.70;79.70;;;;;;4928535;28;95371;-72
2023/08/10 07:13:03;;;;;;;84.22;52.90;;;17.70;78.10;;;;;;4920266;28;96285;-71
2023/08/10 07:15:30;;;;;;;90.63;53.53;;;17.80;76.90;;;;;;4931751;28;96530;-70
2023/08/10 07:17:57;;;;;;;87.43;53.15;;;17.90;81.80;;;;;;4937234;22;99085;-45
2023/08/10 07:20:23;;;;;;;89.00;53.00;;;18.10;77.70;;;;;;4924484;28;97904;-45
2023/08/10 07:22:48;;;;;;;84.35;52.78;;;18.00;76.00;;;;;;4926125;28;96017;-45
2023/08/10 07:25:17;;;;;;;87.35;52.95;;;18.00;77.70;;;;;;4916585;28;99591;-50
2023/08/10 07:27:43;;;;;;;88.30;53.15;;;18.20;76.20;;;;;;4923870;28;99226;-51
2023/08/10 07:30:10;;;;;;;92.10;53.38;;;18.20;75.60;;;;;;4927878;28;97920;-49
2023/08/10 07:32:36;;;;;;;91.35;53.65;;;18.20;76.30;;;;;;4941220;28;96103;-46
2023/08/10 07:35:02;;;;;;;85.93;52.97;;;18.30;75.10;;;;;;4925405;28;95007;-46
2023/08/10 07:37:29;;;;;;;84.97;53.15;;;18.30;75.70;;;;;;4911432;28;99432;-46
2023/08/10 07:39:54;;;;;;;89.43;53.53;;;18.30;76.50;;;;;;4921429;28;97703;-45
2023/08/10 07:42:20;;;;;;;87.32;53.38;;;18.50;77.00;;;;;;4931623;28;99215;-44
2023/08/10 07:44:45;;;;;;;85.00;52.92;;;18.70;74.00;;;;;;4927645;28;96133;-44
2023/08/10 07:47:12;;;;;;;87.22;53.08;;;18.70;74.20;;;;;;4918501;28;95764;-44
2023/08/10 07:49:39;;;;;;;87.50;53.10;;;18.80;75.40;;;;;;4912257;28;101225;-46
2023/08/10 07:52:10;;;;;;;85.60;53.28;;;18.90;73.50;;;;;;4916065;28;95116;-45
2023/08/10 07:54:36;;;;;;;93.22;53.92;;;19.00;73.60;;;;;;4929120;28;95199;-45
2023/08/10 07:57:02;;;;;;;86.47;53.38;;;19.20;71.40;;;;;;4909161;28;98005;-48
2023/08/10 07:59:27;;;;;;;91.25;53.95;;;19.10;72.10;;;;;;4902826;28;95841;-48
2023/08/10 08:01:53;;;;;;;89.00;53.88;;;19.20;73.00;;;;;;4922292;28;98755;-44
2023/08/10 08:04:19;;;;;;;86.72;53.50;;;19.10;70.90;;;;;;4906765;28;99122;-46
2023/08/10 08:06:44;;;;;;;97.20;53.83;;;19.10;73.50;;;;;;4923700;28;96021;-48
2023/08/10 08:09:12;;;;;;;87.38;53.13;;;19.30;72.10;;;;;;4930128;28;99943;-44
2023/08/10 08:11:38;;;;;;;85.28;52.97;;;19.30;72.10;;;;;;4917274;28;97625;-46
2023/08/10 08:14:03;;;;;;;87.10;53.10;;;19.40;71.10;;;;;;4905601;28;96053;-47
2023/08/10 08:16:29;;;;;;;88.88;53.05;;;19.50;70.50;;;;;;4887174;28;100982;-49
2023/08/10 08:18:55;;;;;;;92.57;53.58;;;19.50;73.00;;;;;;4911019;28;96004;-48
2023/08/10 08:21:23;;;;;;;96.47;53.85;;;19.60;73.30;;;;;;4893603;28;97496;-47
2023/08/10 08:23:49;;;;;;;86.35;53.38;;;19.70;72.20;;;;;;4888264;28;97840;-45
2023/08/10 08:26:16;;;;;;;89.38;53.63;;;19.80;71.50;;;;;;4888504;28;97065;-45
2023/08/10 08:28:43;;;;;;;85.35;53.40;;;19.90;71.60;;;;;;4903323;28;96986;-47
2023/08/10 08:31:09;;;;;;;88.80;53.42;;;19.90;67.30;;;;;;4899240;28;96203;-48
2023/08/10 08:33:35;;;;;;;85.63;53.47;;;20.00;70.70;;;;;;4899971;28;102183;-44
2023/08/10 08:36:01;;;;;;;87.63;53.65;;;20.00;66.60;;;;;;4896781;28;98673;-44
2023/08/10 08:38:29;;;;;;;87.38;53.47;;;20.00;70.30;;;;;;4903514;28;99172;-47
2023/08/10 08:40:55;;;;;;;86.22;53.28;;;20.00;68.90;;;;;;4903525;28;95248;-45
2023/08/10 08:43:21;;;;;;;87.82;53.58;;;20.00;66.20;;;;;;4896519;28;95539;-45
2023/08/10 08:45:48;;;;;;;87.93;53.55;;;20.00;68.60;;;;;;4906452;28;100776;-46
2023/08/10 08:48:17;;;;;;;94.13;53.50;;;20.10;66.10;;;;;;4905149;28;94945;-47
2023/08/10 08:50:47;;;;;;;86.20;53.22;;;20.20;64.50;;;;;;4907232;28;97771;-45
2023/08/10 08:53:12;;;;;;;85.03;53.25;;;20.20;62.90;;;;;;4892573;28;99130;-46
2023/08/10 08:55:39;;;;;;;86.10;53.28;;;20.20;58.70;;;;;;4900029;28;96248;-46
2023/08/10 08:58:05;;;;;;;85.30;53.47;;;20.30;64.20;;;;;;4901784;28;95931;-45
2023/08/10 09:00:31;;;;;;;85.90;53.45;;;20.40;62.60;;;;;;4879493;28;97543;-45
2023/08/10 09:03:00;;;;;;;85.40;53.47;;;20.40;62.10;;;;;;4911952;28;97725;-47
2023/08/10 09:05:26;;;;;;;85.60;53.25;;;20.40;61.90;;;;;;4893363;28;97139;-48
2023/08/10 09:07:51;;;;;;;85.25;53.33;;;20.40;58.60;;;;;;4906414;28;97722;-47
2023/08/10 09:10:19;;;;;;;85.25;53.42;;;20.60;61.90;;;;;;4896557;28;95749;-47
2023/08/10 09:12:44;;;;;;;88.70;53.78;;;20.60;55.60;;;;;;4911479;28;96686;-48
2023/08/10 09:15:16;;;;;;;86.28;53.80;;;20.60;60.00;;;;;;4878708;28;99313;-46
2023/08/10 09:17:46;;;;;;;;;;;20.70;59.00;;;;;;4900261;28;96031;-48
2023/08/10 09:20:27;;;;;;;86.82;53.50;;;20.80;56.90;;;;;;4907040;28;96273;-46
2023/08/10 09:22:57;;;;;;;87.10;53.92;;;20.90;56.10;;;;;;4902179;28;98180;-45
2023/08/10 09:25:24;;;;;;;85.57;53.40;;;20.90;56.70;;;;;;4899829;28;96421;-46
2023/08/10 09:27:51;;;;;;;84.70;53.40;;;20.90;56.70;;;;;;4880680;28;97275;-47
2023/08/10 09:30:19;;;;;;;85.35;53.35;;;21.00;56.80;;;;;;4915013;28;95559;-48
2023/08/10 09:32:45;;;;;;;87.93;53.97;;;21.00;56.60;;;;;;4918827;28;96795;-45
2023/08/10 09:35:16;;;;;;;89.25;53.63;;;21.10;56.20;;;;;;4892347;28;99211;-50
2023/08/10 09:37:42;;;;;;;86.03;53.67;;;21.20;56.90;;;;;;4905237;28;94741;-44
2023/08/10 09:40:12;;;;;;;88.00;53.92;;;21.20;57.40;;;;;;4891809;28;95303;-44
2023/08/10 09:42:39;;;;;;;86.90;53.50;;;21.20;57.50;;;;;;4903859;28;97488;-46
2023/08/10 09:45:08;;;;;;;96.90;53.92;;;21.30;56.50;;;;;;4882442;28;102612;-44
2023/08/10 09:47:36;;;;;;;87.07;53.90;;;21.30;57.10;;;;;;4898212;28;100168;-46
2023/08/10 09:50:05;;;;;;;88.07;53.78;;;21.40;57.70;;;;;;4899047;28;97413;-43
2023/08/10 09:52:36;;;;;;;87.43;54.03;;;21.40;57.10;;;;;;4900220;28;98918;-46
2023/08/10 09:55:03;;;;;;;86.00;53.80;;;21.40;56.60;;;;;;4895502;28;96021;-46
2023/08/10 09:57:29;;;;;;;86.95;54.13;;;21.50;56.50;;;;;;4903541;28;95775;-48
2023/08/10 09:59:55;;;;;;;88.60;53.95;;;21.60;56.20;;;;;;4908638;28;98124;-45
2023/08/10 10:02:22;;;;;;;88.50;54.17;;;21.60;56.90;;;;;;4883869;28;96938;-48
2023/08/10 10:04:48;;;;;;;86.70;53.85;;;21.70;56.80;;;;;;4908394;28;96007;-47
2023/08/10 10:07:20;;;;;;;88.43;54.05;;;21.70;56.70;;;;;;4892531;28;95223;-46
2023/08/10 10:09:47;;;;;;;88.40;53.95;;;21.80;56.60;;;;;;4893593;28;99116;-50
2023/08/10 10:12:14;;;;;;;89.75;54.20;;;21.80;57.00;;;;;;4898675;28;95612;-45
2023/08/10 10:14:44;;;;;;;90.05;54.33;;;21.90;56.90;;;;;;4898290;28;95834;-47
2023/08/10 10:17:12;;;;;;;87.05;54.35;;;21.90;58.30;;;;;;4876925;28;97723;-46
2023/08/10 10:19:39;;;;;;;88.93;54.35;;;22.00;57.30;;;;;;4889068;28;97311;-44
2023/08/10 10:22:05;;;;;;;89.28;54.25;;;22.00;57.80;;;;;;4893967;28;98686;-45
2023/08/10 10:24:32;;;;;;;86.88;54.25;;;22.00;57.90;;;;;;4900334;28;96579;-44
2023/08/10 10:27:11;;;;;;;88.63;54.30;;;22.10;56.60;;;;;;4900507;28;95973;-42
2023/08/10 10:29:37;;;;;;;92.13;54.28;;;22.10;57.80;;;;;;4897386;28;100071;-45
2023/08/10 10:32:21;;;;;;;89.53;54.40;;;22.10;58.60;;;;;;4892139;28;100816;-46
2023/08/10 10:34:49;;;;;;;87.75;54.00;;;22.20;58.70;;;;;;4896231;28;97218;-46
2023/08/10 10:37:18;;;;;;;87.28;54.38;;;22.30;58.30;;;;;;4898608;28;95354;-46
2023/08/10 10:39:53;;;;;;;89.43;54.28;;;22.30;57.80;;;;;;4889425;28;97184;-47
2023/08/10 10:42:20;;;;;;;89.35;54.63;;;22.40;58.40;;;;;;4906846;28;95070;-45
2023/08/10 10:45:07;;;;;;;87.97;54.53;;;22.40;58.20;;;;;;4890742;28;97472;-48
2023/08/10 10:47:41;;;;;;;92.15;54.55;;;22.50;57.90;;;;;;4889508;28;95850;-45
2023/08/10 10:50:28;;;;;;;92.40;54.83;;;22.50;58.00;;;;;;4894780;28;102916;-44
2023/08/10 10:52:56;;;;;;;88.10;54.33;;;22.60;58.00;;;;;;4899269;28;94221;-49
2023/08/10 10:55:28;;;;;;;89.28;54.72;;;22.60;60.30;;;;;;4892265;28;96072;-49
2023/08/10 10:57:53;;;;;;;90.95;54.40;;;22.70;58.50;;;;;;4900078;28;100236;-45
2023/08/10 11:00:22;;;;;;;88.53;54.83;;;22.60;59.10;;;;;;4919745;28;96266;-46
2023/08/10 11:02:49;;;;;;;88.47;54.42;;;22.60;58.80;;;;;;4890258;28;99673;-48
2023/08/10 11:05:18;;;;;;;87.65;54.50;;;22.70;58.80;;;;;;4917070;28;96330;-50
2023/08/10 11:07:45;;;;;;;88.93;54.65;;;22.70;58.80;;;;;;4912025;28;94715;-48
2023/08/10 11:10:12;;;;;;;89.82;54.75;;;22.80;59.80;;;;;;4910776;28;96495;-45
2023/08/10 11:12:39;;;;;;;88.13;54.65;;;22.90;60.20;;;;;;4883896;28;96535;-45
2023/08/10 11:15:12;;;;;;;88.35;54.78;;;22.90;60.50;;;;;;4907446;28;97047;-43
2023/08/10 11:17:45;;;;;;;91.68;55.08;;;23.00;59.40;;;;;;4881907;28;99093;-46
2023/08/10 11:20:15;;;;;;;88.97;55.13;;;23.00;57.70;;;;;;4874261;28;95860;-47
2023/08/10 11:22:45;;;;;;;87.93;54.83;;;23.10;57.60;;;;;;4881437;28;99033;-45
2023/08/10 11:25:25;;;;;;;89.80;54.83;;;23.10;60.00;;;;;;4876927;28;100139;-48
2023/08/10 11:27:53;;;;;;;89.18;54.72;;;23.10;59.30;;;;;;4873875;28;98977;-50
2023/08/10 11:30:21;;;;;;;89.18;55.03;;;23.10;59.10;;;;;;4882380;28;100293;-46
2023/08/10 11:32:48;;;;;;;89.72;54.78;;;23.10;59.90;;;;;;4871422;28;95719;-48
2023/08/10 11:35:16;;;;;;;88.00;54.53;;;23.20;62.10;;;;;;4865571;28;98930;-47
2023/08/10 11:37:43;;;;;;;88.93;54.85;;;23.10;61.80;;;;;;4883640;28;98597;-49
2023/08/10 11:40:15;;;;;;;91.63;54.78;;;23.10;63.00;;;;;;4889299;28;97716;-45
2023/08/10 11:42:42;;;;;;;92.90;55.30;;;23.20;59.30;;;;;;4894462;28;95633;-49
2023/08/10 11:45:16;;;;;;;88.57;54.90;;;23.20;57.10;;;;;;4879030;28;100443;-49
2023/08/10 11:47:44;;;;;;;89.10;55.13;;;23.30;59.00;;;;;;4871203;28;99080;-45
2023/08/10 11:50:13;;;;;;;88.30;54.72;;;23.30;59.20;;;;;;4872638;28;97679;-46
2023/08/10 11:52:39;;;;;;;88.53;54.83;;;23.30;58.70;;;;;;4883469;28;98600;-45
2023/08/10 11:55:13;;;;;;;88.80;54.70;;;23.30;58.00;;;;;;4890811;28;100428;-47
2023/08/10 11:57:43;;;;;;;88.68;54.75;;;23.40;57.70;;;;;;4884375;28;94747;-48
2023/08/10 12:00:25;;;;;;;91.63;55.25;;;23.40;58.20;;;;;;4875341;28;95565;-48
2023/08/10 12:03:16;;;;;;;89.43;55.05;;;23.40;58.80;;;;;;4893581;28;101327;-45
2023/08/10 12:05:43;;;;;;;91.00;55.67;;;23.50;57.20;;;;;;4893778;28;97349;-44
2023/08/10 12:08:14;;;;;;;90.85;55.45;;;23.60;59.20;;;;;;4893187;28;97001;-48
2023/08/10 12:10:42;;;;;;;89.68;54.83;;;23.50;61.50;;;;;;4896159;28;95726;-44
2023/08/10 12:13:19;;;;;;;89.53;55.25;;;23.40;61.70;;;;;;4883505;28;95172;-49
2023/08/10 12:15:46;;;;;;;88.43;54.92;;;23.40;61.90;;;;;;4891213;28;98342;-47
2023/08/10 12:18:16;;;;;;;89.32;55.13;;;23.50;61.60;;;;;;4913638;28;95387;-45
2023/08/10 12:20:43;;;;;;;89.35;55.00;;;23.50;62.10;;;;;;4919036;28;96048;-45
2023/08/10 12:23:09;;;;;;;89.07;55.30;;;23.50;61.50;;;;;;4900317;28;100024;-47
2023/08/10 12:25:36;;;;;;;88.47;54.80;;;23.50;61.80;;;;;;4914436;28;98665;-45
2023/08/10 12:28:01;;;;;;;90.32;55.22;;;23.50;67.30;;;;;;4917793;28;95657;-45